Time;durP1;ratioP1;P1;durP2;ratioP2;P2;SDS_P1;SDS_P2;PMS_P1;PMS_P2;Temp;Humidity;BMP_temperature;BMP_pressure;BME280_temperature;BME280_humidity;BME280_pressure;Samples;Min_cycle;Max_cycle;Signal;HPM_P1;HPM_P2
2021/10/07 00:01:20;;;;;;;5.00;4.27;;;10.30;99.90;;;;;;6211706;23;20234;-86
2021/10/07 00:03:46;;;;;;;10.17;4.93;;;10.50;99.90;;;;;;6212326;22;20165;-86
2021/10/07 00:06:12;;;;;;;8.20;4.77;;;10.50;99.90;;;;;;6212373;23;20207;-87
2021/10/07 00:08:38;;;;;;;10.40;5.20;;;10.50;99.90;;;;;;6236970;22;20632;-86
2021/10/07 00:11:03;;;;;;;6.73;4.37;;;10.50;99.90;;;;;;6211511;23;20196;-86
2021/10/07 00:13:29;;;;;;;5.07;3.10;;;10.60;99.90;;;;;;6186525;23;20200;-86
2021/10/07 00:15:55;;;;;;;8.73;2.87;;;10.60;99.90;;;;;;6187144;22;20157;-86
2021/10/07 00:18:21;;;;;;;5.30;3.50;;;10.60;99.90;;;;;;6212231;23;20169;-86
2021/10/07 00:20:47;;;;;;;4.43;2.87;;;10.60;99.90;;;;;;6211745;23;20250;-86
2021/10/07 00:23:17;;;;;;;3.57;2.93;;;10.60;99.90;;;;;;6211685;23;20261;-87
2021/10/07 00:25:43;;;;;;;7.00;3.20;;;10.60;99.90;;;;;;6236934;22;20201;-86
2021/10/07 00:28:10;;;;;;;7.43;4.17;;;10.60;99.90;;;;;;6211616;23;20220;-87
2021/10/07 00:30:38;;;;;;;6.17;4.17;;;10.60;99.90;;;;;;6212870;23;20329;-86
2021/10/07 00:36:01;;;;;;;10.20;4.43;;;10.60;99.90;;;;;;6211062;23;20193;-87
2021/10/07 00:41:12;;;;;;;6.97;4.43;;;10.70;99.90;;;;;;6215634;23;20217;-86
2021/10/07 00:43:38;;;;;;;6.27;4.30;;;10.80;99.90;;;;;;6186782;23;20250;-86
2021/10/07 00:46:03;;;;;;;3.83;3.20;;;10.80;99.90;;;;;;6211593;23;20197;-86
2021/10/07 00:48:29;;;;;;;6.97;4.47;;;10.80;99.90;;;;;;6187393;23;20201;-86
2021/10/07 00:50:55;;;;;;;8.97;4.07;;;10.80;99.90;;;;;;6186519;23;20654;-87
2021/10/07 00:53:21;;;;;;;9.03;5.07;;;10.80;99.90;;;;;;6186858;23;20196;-87
2021/10/07 00:55:47;;;;;;;9.23;5.00;;;10.80;99.90;;;;;;6185764;23;20200;-86
2021/10/07 00:58:15;;;;;;;7.50;4.53;;;10.80;99.90;;;;;;6236359;22;20219;-86
2021/10/07 01:00:42;;;;;;;8.70;5.57;;;10.90;99.90;;;;;;6236660;22;20583;-86
2021/10/07 01:03:08;;;;;;;9.13;5.73;;;10.80;99.90;;;;;;6237455;23;20248;-87
2021/10/07 01:05:34;;;;;;;7.63;5.83;;;10.80;99.90;;;;;;6238293;22;20233;-86
2021/10/07 01:08:00;;;;;;;8.70;4.57;;;10.90;99.90;;;;;;6237856;22;20205;-87
2021/10/07 01:10:26;;;;;;;7.33;5.60;;;10.90;99.90;;;;;;6211781;23;20650;-87
2021/10/07 01:12:52;;;;;;;9.57;5.50;;;10.90;99.90;;;;;;6186776;22;20168;-87
2021/10/07 01:15:18;;;;;;;9.03;5.47;;;11.00;99.90;;;;;;6237878;23;20204;-87
2021/10/07 01:17:44;;;;;;;11.53;5.50;;;11.00;99.90;;;;;;6211123;23;20209;-86
2021/10/07 01:20:12;;;;;;;8.50;5.27;;;11.00;99.90;;;;;;6238292;22;20283;-87
2021/10/07 01:22:38;;;;;;;7.73;4.50;;;11.00;99.90;;;;;;6213455;23;20196;-86
2021/10/07 01:25:05;;;;;;;9.23;5.13;;;11.00;99.90;;;;;;6239996;22;20189;-86
2021/10/07 01:27:33;;;;;;;7.50;4.63;;;11.00;99.90;;;;;;6214141;23;20203;-87
2021/10/07 01:30:05;;;;;;;12.53;5.77;;;11.00;99.90;;;;;;6213175;23;20688;-87
2021/10/07 01:32:34;;;;;;;15.97;6.77;;;11.00;99.90;;;;;;6239725;22;20260;-87
2021/10/07 01:35:00;;;;;;;6.63;5.47;;;11.00;99.90;;;;;;6212988;23;20193;-87
2021/10/07 01:37:26;;;;;;;8.63;5.07;;;11.00;99.90;;;;;;6213182;23;20201;-86
2021/10/07 01:39:52;;;;;;;6.73;3.90;;;11.00;99.90;;;;;;6188080;22;20251;-88
2021/10/07 01:42:18;;;;;;;5.53;4.13;;;10.90;99.90;;;;;;6214604;23;20268;-86
2021/10/07 01:44:44;;;;;;;8.10;4.77;;;10.90;99.90;;;;;;6238405;22;20936;-86
2021/10/07 01:47:09;;;;;;;6.93;5.00;;;11.00;99.90;;;;;;6213557;23;20205;-86
2021/10/07 01:49:35;;;;;;;14.13;4.83;;;11.00;99.90;;;;;;6212971;23;20206;-86
2021/10/07 01:52:01;;;;;;;7.50;5.23;;;10.90;99.90;;;;;;6238253;22;20197;-86
2021/10/07 01:54:27;;;;;;;6.73;4.63;;;10.80;99.90;;;;;;6189077;23;20166;-86
2021/10/07 01:56:52;;;;;;;7.70;5.37;;;10.80;99.90;;;;;;6213034;23;20201;-86
2021/10/07 01:59:18;;;;;;;10.30;6.10;;;10.90;99.90;;;;;;6213348;22;20193;-86
2021/10/07 02:01:44;;;;;;;11.67;5.93;;;11.00;99.90;;;;;;6238413;22;20201;-86
2021/10/07 02:04:10;;;;;;;7.00;5.00;;;11.00;99.90;;;;;;6212908;23;20718;-86
2021/10/07 02:06:36;;;;;;;4.17;2.43;;;11.00;99.90;;;;;;6189432;23;20578;-86
2021/10/07 02:09:04;;;;;;;5.43;2.90;;;10.40;99.90;;;;;;6188134;23;20205;-86
2021/10/07 02:11:30;;;;;;;4.70;2.40;;;10.00;99.90;;;;;;6238553;22;20236;-86
2021/10/07 02:13:56;;;;;;;10.27;4.40;;;9.80;99.90;;;;;;6238666;22;20201;-86
2021/10/07 02:16:21;;;;;;;4.90;3.83;;;10.00;99.90;;;;;;6188810;23;20216;-87
2021/10/07 02:18:47;;;;;;;11.43;3.77;;;10.10;99.90;;;;;;6188176;22;20162;-86
2021/10/07 02:21:13;;;;;;;3.93;2.50;;;10.10;99.90;;;;;;6214109;23;20188;-86
2021/10/07 02:23:39;;;;;;;25.77;4.63;;;9.90;99.90;;;;;;6213058;23;20200;-86
2021/10/07 02:26:05;;;;;;;37.03;4.37;;;9.40;99.90;;;;;;6213686;23;20200;-87
2021/10/07 02:28:30;;;;;;;6.60;2.43;;;9.00;99.90;;;;;;6187756;23;20663;-86
2021/10/07 02:30:58;;;;;;;7.57;1.90;;;8.80;99.90;;;;;;6188196;22;20161;-86
2021/10/07 02:33:25;;;;;;;2.70;1.97;;;8.70;99.90;;;;;;6189351;23;20579;-86
2021/10/07 02:35:50;;;;;;;2.37;2.00;;;8.80;99.90;;;;;;6239569;22;20201;-86
2021/10/07 02:38:16;;;;;;;1.87;1.60;;;8.90;99.90;;;;;;6188074;23;20197;-87
2021/10/07 02:40:42;;;;;;;5.57;2.67;;;9.10;99.90;;;;;;6187692;23;20274;-86
2021/10/07 02:43:08;;;;;;;140.83;9.73;;;8.90;99.90;;;;;;6187809;23;20193;-86
2021/10/07 02:45:34;;;;;;;5.90;1.37;;;8.70;99.90;;;;;;6188958;23;20244;-86
2021/10/07 02:48:00;;;;;;;1.30;1.20;;;8.10;99.90;;;;;;6212976;23;20969;-86
2021/10/07 02:50:27;;;;;;;1.60;1.50;;;7.80;99.90;;;;;;6239715;22;20201;-88
2021/10/07 02:52:54;;;;;;;1.90;1.60;;;7.50;99.90;;;;;;6238060;22;20197;-87
2021/10/07 02:55:20;;;;;;;2.40;1.40;;;7.60;99.90;;;;;;6213141;23;20200;-86
2021/10/07 02:57:46;;;;;;;1.80;1.70;;;7.90;99.90;;;;;;6212961;22;20165;-87
2021/10/07 03:00:15;;;;;;;1.53;1.43;;;8.20;99.90;;;;;;6214039;23;20185;-87
2021/10/07 03:02:40;;;;;;;2.00;1.60;;;8.30;99.90;;;;;;6238115;22;20193;-87
2021/10/07 03:05:07;;;;;;;3.33;2.37;;;8.40;99.90;;;;;;6212565;23;20254;-87
2021/10/07 03:07:34;;;;;;;3.87;2.67;;;8.40;99.90;;;;;;6239733;22;20577;-87
2021/10/07 03:10:00;;;;;;;3.43;2.93;;;8.50;99.90;;;;;;6188459;22;20991;-87
2021/10/07 03:12:25;;;;;;;4.17;2.80;;;8.50;99.90;;;;;;6213794;23;20170;-87
2021/10/07 03:14:51;;;;;;;2.13;1.93;;;8.50;99.90;;;;;;6238009;22;20693;-87
2021/10/07 03:17:17;;;;;;;70.30;5.93;;;8.40;99.90;;;;;;6213074;23;20208;-87
2021/10/07 03:19:44;;;;;;;97.10;5.07;;;8.40;99.90;;;;;;6212433;23;20217;-87
2021/10/07 03:22:10;;;;;;;41.17;2.10;;;8.20;99.90;;;;;;6212930;23;20201;-86
2021/10/07 03:24:36;;;;;;;6.27;1.47;;;7.70;99.90;;;;;;6188435;23;20172;-86
2021/10/07 03:27:03;;;;;;;13.13;1.63;;;7.50;99.90;;;;;;6212728;22;20193;-86
2021/10/07 03:29:30;;;;;;;11.47;1.43;;;7.30;99.90;;;;;;6237733;22;20227;-86
2021/10/07 03:31:56;;;;;;;0.87;0.87;;;7.00;99.90;;;;;;6212212;23;20721;-87
2021/10/07 03:34:22;;;;;;;1.10;1.10;;;6.70;99.90;;;;;;6187534;23;20196;-86
2021/10/07 03:36:48;;;;;;;0.87;0.87;;;6.80;99.90;;;;;;6212804;22;20189;-86
2021/10/07 03:39:14;;;;;;;2.50;1.50;;;7.00;99.90;;;;;;6213034;23;20604;-86
2021/10/07 03:41:40;;;;;;;1.97;1.87;;;7.10;99.90;;;;;;6187479;23;20201;-87
2021/10/07 03:44:06;;;;;;;1.00;1.00;;;7.00;99.90;;;;;;6212321;23;20212;-86
2021/10/07 03:46:32;;;;;;;2.07;1.37;;;6.90;99.90;;;;;;6211838;23;20201;-86
2021/10/07 03:48:58;;;;;;;3.33;1.40;;;6.80;99.90;;;;;;6212589;22;20208;-86
2021/10/07 03:51:24;;;;;;;0.70;0.70;;;6.70;99.90;;;;;;6238076;23;20154;-87
2021/10/07 03:53:50;;;;;;;1.17;1.17;;;6.70;99.90;;;;;;6211999;23;20201;-87
2021/10/07 03:56:16;;;;;;;1.83;1.73;;;6.90;99.90;;;;;;6187161;23;20203;-86
2021/10/07 03:58:42;;;;;;;3.13;1.30;;;7.00;99.90;;;;;;6211749;23;20259;-86
2021/10/07 04:01:08;;;;;;;3.17;1.60;;;7.20;99.90;;;;;;6237909;22;20193;-87
2021/10/07 04:03:33;;;;;;;2.57;1.87;;;7.40;99.90;;;;;;6187721;23;20157;-86
2021/10/07 04:05:59;;;;;;;2.37;2.17;;;7.40;99.90;;;;;;6187137;23;20197;-86
2021/10/07 04:08:25;;;;;;;1.57;1.47;;;7.50;99.90;;;;;;6187259;23;20254;-86
2021/10/07 04:10:51;;;;;;;2.10;1.93;;;7.50;99.90;;;;;;6212277;23;20331;-85
2021/10/07 04:13:19;;;;;;;57.20;3.40;;;7.50;99.90;;;;;;6237644;22;20192;-85
2021/10/07 04:15:46;;;;;;;0.73;0.73;;;7.40;99.90;;;;;;6186964;22;20188;-85
2021/10/07 04:18:13;;;;;;;7.87;1.30;;;6.90;99.90;;;;;;6213081;23;20169;-86
2021/10/07 04:20:40;;;;;;;1.13;1.00;;;6.50;99.90;;;;;;6211609;23;20216;-86
2021/10/07 04:23:07;;;;;;;1.20;1.10;;;6.30;99.90;;;;;;6212223;23;20212;-85
2021/10/07 04:25:33;;;;;;;16.67;1.87;;;6.40;99.90;;;;;;6237566;22;20215;-85
2021/10/07 04:27:58;;;;;;;20.37;1.47;;;6.60;99.90;;;;;;6186085;22;20986;-85
2021/10/07 04:30:24;;;;;;;7.03;1.10;;;6.70;99.90;;;;;;6212782;23;20638;-86
2021/10/07 04:32:50;;;;;;;2.40;1.20;;;6.80;99.90;;;;;;6211581;23;20197;-86
2021/10/07 04:35:17;;;;;;;0.97;0.97;;;6.80;99.90;;;;;;6211946;23;20196;-85
2021/10/07 04:37:43;;;;;;;16.50;2.23;;;6.80;99.90;;;;;;6186657;23;20217;-85
2021/10/07 04:40:09;;;;;;;13.47;1.57;;;6.70;99.90;;;;;;6186069;23;20209;-85
2021/10/07 04:42:35;;;;;;;1.20;1.10;;;6.80;99.90;;;;;;6187390;23;20154;-85
2021/10/07 04:45:01;;;;;;;9.20;1.10;;;6.80;99.90;;;;;;6236312;22;20262;-85
2021/10/07 04:47:28;;;;;;;1.47;1.37;;;6.80;99.90;;;;;;6211774;23;20598;-85
2021/10/07 04:49:55;;;;;;;1.53;1.43;;;6.80;99.90;;;;;;6186928;23;20211;-85
2021/10/07 04:52:21;;;;;;;1.53;1.43;;;6.70;99.90;;;;;;6238066;22;20276;-86
2021/10/07 04:54:47;;;;;;;10.03;1.90;;;6.70;99.90;;;;;;6186735;22;20192;-85
2021/10/07 04:57:12;;;;;;;4.47;1.87;;;6.80;99.90;;;;;;6188823;23;20797;-85
2021/10/07 04:59:38;;;;;;;1.83;1.60;;;7.00;99.90;;;;;;6187868;23;20275;-86
2021/10/07 05:02:04;;;;;;;2.27;1.90;;;7.30;99.90;;;;;;6188068;23;20189;-85
2021/10/07 05:04:30;;;;;;;3.37;1.57;;;7.50;99.90;;;;;;6188337;23;20247;-85
2021/10/07 05:06:56;;;;;;;2.37;2.17;;;7.40;99.90;;;;;;6213391;22;20232;-85
2021/10/07 05:09:21;;;;;;;1.60;1.50;;;7.30;99.90;;;;;;6189301;23;20177;-85
2021/10/07 05:11:47;;;;;;;1.57;1.47;;;7.20;99.90;;;;;;6213281;23;20196;-86
2021/10/07 05:14:13;;;;;;;32.97;2.93;;;7.30;99.90;;;;;;6213610;23;20200;-86
2021/10/07 05:16:38;;;;;;;28.57;3.93;;;7.50;99.90;;;;;;6188750;23;20193;-86
2021/10/07 05:19:04;;;;;;;16.57;3.17;;;7.70;99.90;;;;;;6213531;23;20189;-87
2021/10/07 05:21:30;;;;;;;7.40;3.00;;;7.80;99.90;;;;;;6189031;23;20162;-86
2021/10/07 05:23:56;;;;;;;15.93;3.07;;;8.00;99.90;;;;;;6188717;23;20239;-85
2021/10/07 05:26:22;;;;;;;9.70;3.30;;;8.00;99.90;;;;;;6213407;23;20193;-86
2021/10/07 05:28:48;;;;;;;30.77;3.40;;;7.80;99.90;;;;;;6213104;23;20288;-86
2021/10/07 05:31:14;;;;;;;4.87;2.40;;;7.70;99.90;;;;;;6213690;23;20196;-86
2021/10/07 05:33:39;;;;;;;3.33;3.07;;;7.70;99.90;;;;;;6239487;22;20157;-87
2021/10/07 05:36:05;;;;;;;15.73;2.87;;;7.70;99.90;;;;;;6213855;23;20203;-85
2021/10/07 05:38:31;;;;;;;7.50;2.20;;;7.80;99.90;;;;;;6238552;22;20196;-85
2021/10/07 05:40:59;;;;;;;1.17;1.13;;;7.80;99.90;;;;;;6212890;23;20215;-85
2021/10/07 05:43:25;;;;;;;2.30;1.37;;;7.50;99.90;;;;;;6214175;23;20197;-85
2021/10/07 05:45:51;;;;;;;2.23;1.93;;;7.30;99.90;;;;;;6213483;22;20653;-86
2021/10/07 05:48:16;;;;;;;3.13;2.13;;;7.40;99.90;;;;;;6239702;23;20172;-87
2021/10/07 05:50:42;;;;;;;7.90;2.47;;;7.50;99.90;;;;;;6188671;23;20189;-87
2021/10/07 05:53:08;;;;;;;3.13;1.70;;;7.60;99.90;;;;;;6239148;22;20193;-87
2021/10/07 05:55:34;;;;;;;14.10;1.77;;;7.70;99.90;;;;;;6214169;23;20760;-88
2021/10/07 05:58:00;;;;;;;15.87;1.67;;;7.50;99.90;;;;;;6214152;22;20292;-87
2021/10/07 06:00:25;;;;;;;0.97;0.90;;;7.50;99.90;;;;;;6189883;23;20169;-87
2021/10/07 06:02:51;;;;;;;1.87;1.37;;;7.30;99.90;;;;;;6188065;23;20263;-87
2021/10/07 06:05:17;;;;;;;1.50;1.40;;;7.10;99.90;;;;;;6213221;23;20518;-87
2021/10/07 06:07:43;;;;;;;1.33;1.20;;;6.90;99.90;;;;;;6188016;23;20227;-88
2021/10/07 06:10:11;;;;;;;1.20;1.10;;;6.70;99.90;;;;;;6188611;23;20533;-86
2021/10/07 06:12:37;;;;;;;1.43;0.83;;;6.80;99.90;;;;;;6239376;23;20166;-86
2021/10/07 06:15:04;;;;;;;0.83;0.83;;;6.70;99.90;;;;;;6188689;23;20201;-87
2021/10/07 06:17:29;;;;;;;0.90;0.90;;;6.70;99.90;;;;;;6213456;23;20247;-87
2021/10/07 06:20:19;;;;;;;1.10;1.00;;;6.60;99.90;;;;;;6188649;23;20887;-86
2021/10/07 06:22:49;;;;;;;1.07;0.97;;;6.70;99.90;;;;;;6218149;23;20202;-87
2021/10/07 06:25:15;;;;;;;2.90;1.50;;;7.10;99.90;;;;;;6239034;22;20251;-86
2021/10/07 06:27:41;;;;;;;3.83;1.20;;;7.20;99.90;;;;;;6213870;22;20468;-87
2021/10/07 06:30:07;;;;;;;1.50;1.40;;;7.20;99.90;;;;;;6239054;23;20181;-86
2021/10/07 06:32:33;;;;;;;1.80;1.53;;;7.40;99.90;;;;;;6238485;22;20213;-86
2021/10/07 06:34:59;;;;;;;3.73;1.67;;;7.70;99.90;;;;;;6187783;23;20193;-86
2021/10/07 06:37:24;;;;;;;1.20;1.10;;;8.00;99.90;;;;;;6213439;23;20197;-86
2021/10/07 06:39:50;;;;;;;1.70;1.53;;;8.50;99.90;;;;;;6212483;22;20292;-86
2021/10/07 06:42:16;;;;;;;8.47;2.00;;;9.00;99.90;;;;;;6188787;23;20262;-86
2021/10/07 06:44:42;;;;;;;2.57;1.60;;;9.30;99.90;;;;;;6213217;23;20196;-86
2021/10/07 06:47:07;;;;;;;3.07;1.60;;;9.50;99.90;;;;;;6212380;23;20236;-86
2021/10/07 06:49:33;;;;;;;1.97;1.83;;;9.30;99.90;;;;;;6187693;23;20233;-86
2021/10/07 06:51:59;;;;;;;2.10;1.83;;;9.20;99.90;;;;;;6212982;22;20248;-86
2021/10/07 06:54:25;;;;;;;4.80;3.43;;;9.10;99.90;;;;;;6188717;23;20172;-86
2021/10/07 06:56:50;;;;;;;3.73;2.87;;;9.30;99.90;;;;;;6187663;23;20197;-86
2021/10/07 06:59:16;;;;;;;18.10;3.17;;;9.30;99.90;;;;;;6187981;23;20202;-85
2021/10/07 07:01:42;;;;;;;2.90;2.63;;;8.80;99.90;;;;;;6188018;23;20200;-86
2021/10/07 07:04:13;;;;;;;2.23;2.10;;;8.60;99.90;;;;;;6237843;22;20627;-87
2021/10/07 07:06:39;;;;;;;3.50;3.20;;;8.70;99.90;;;;;;6213614;22;20159;-87
2021/10/07 07:09:05;;;;;;;4.87;2.70;;;9.10;99.90;;;;;;6213026;23;20193;-86
2021/10/07 07:11:31;;;;;;;5.03;2.90;;;9.10;99.90;;;;;;6187530;23;20197;-86
2021/10/07 07:13:57;;;;;;;3.27;2.97;;;9.20;99.90;;;;;;6212350;23;20284;-87
2021/10/07 07:16:23;;;;;;;3.40;2.63;;;9.30;99.90;;;;;;6237467;22;20189;-87
2021/10/07 07:18:49;;;;;;;3.70;2.43;;;9.70;99.90;;;;;;6238032;22;20185;-87
2021/10/07 07:21:16;;;;;;;3.60;2.97;;;10.10;99.90;;;;;;6213447;23;20161;-87
2021/10/07 07:23:42;;;;;;;4.83;3.37;;;10.60;99.90;;;;;;6212684;23;20208;-86
2021/10/07 07:26:08;;;;;;;3.90;3.50;;;11.00;99.90;;;;;;6212097;23;20265;-86
2021/10/07 07:28:33;;;;;;;6.67;4.00;;;11.90;99.90;;;;;;6212628;23;20201;-86
2021/10/07 07:30:59;;;;;;;5.43;3.93;;;13.20;99.90;;;;;;6212056;22;20244;-87
2021/10/07 07:33:27;;;;;;;3.40;2.87;;;12.70;99.90;;;;;;6213395;23;20660;-87
2021/10/07 07:35:53;;;;;;;3.60;2.40;;;13.00;99.90;;;;;;6188201;23;20200;-86
2021/10/07 07:38:19;;;;;;;2.40;1.87;;;14.30;99.90;;;;;;6212501;23;20272;-86
2021/10/07 07:40:45;;;;;;;3.50;2.40;;;14.20;99.90;;;;;;6189120;23;20259;-89
2021/10/07 07:43:18;;;;;;;1.90;1.73;;;13.90;99.90;;;;;;6237860;22;20688;-87
2021/10/07 07:45:45;;;;;;;2.93;1.97;;;15.70;99.90;;;;;;6214437;22;20157;-87
2021/10/07 07:48:11;;;;;;;2.47;1.57;;;17.80;99.90;;;;;;6213577;23;20177;-87
2021/10/07 07:50:37;;;;;;;2.27;1.97;;;18.80;99.90;;;;;;6212026;23;20706;-86
2021/10/07 07:53:02;;;;;;;1.80;1.50;;;18.00;99.90;;;;;;6187477;23;20189;-86
2021/10/07 07:55:28;;;;;;;1.83;1.37;;;17.00;99.90;;;;;;6187671;23;20193;-86
2021/10/07 07:57:54;;;;;;;1.80;1.60;;;15.60;99.90;;;;;;6212046;22;20188;-86
2021/10/07 08:00:20;;;;;;;2.43;1.73;;;15.30;99.90;;;;;;6238199;23;20165;-86
2021/10/07 08:02:45;;;;;;;2.47;2.27;;;15.90;99.90;;;;;;6236865;22;20589;-86
2021/10/07 08:05:11;;;;;;;3.53;2.30;;;16.60;99.90;;;;;;6236645;22;20275;-86
2021/10/07 08:07:37;;;;;;;4.80;2.23;;;18.00;99.90;;;;;;6237016;22;20418;-83
2021/10/07 08:10:03;;;;;;;3.73;1.97;;;18.10;99.90;;;;;;6212274;22;20201;-83
2021/10/07 08:12:33;;;;;;;3.23;1.97;;;18.40;99.90;;;;;;6237937;23;20296;-84
2021/10/07 08:15:00;;;;;;;2.13;1.90;;;19.00;99.90;;;;;;6238468;22;20657;-85
2021/10/07 08:17:27;;;;;;;2.67;1.60;;;19.70;99.90;;;;;;6236531;22;20207;-84
2021/10/07 08:19:53;;;;;;;5.33;2.33;;;19.60;99.90;;;;;;6187174;23;20534;-86
2021/10/07 08:22:19;;;;;;;2.40;1.67;;;19.40;99.90;;;;;;6186972;23;20298;-84
2021/10/07 08:24:45;;;;;;;1.90;1.80;;;20.10;99.90;;;;;;6237748;22;20189;-85
2021/10/07 08:27:11;;;;;;;2.60;2.40;;;19.30;99.90;;;;;;6187983;23;20180;-84
2021/10/07 08:29:37;;;;;;;3.77;2.00;;;19.60;99.90;;;;;;6212259;23;20232;-84
2021/10/07 08:32:03;;;;;;;1.80;1.70;;;19.90;99.90;;;;;;6211425;23;20260;-83
2021/10/07 08:34:29;;;;;;;3.00;1.80;;;19.60;99.90;;;;;;6186916;23;20200;-83
2021/10/07 08:36:55;;;;;;;3.20;1.90;;;18.60;99.90;;;;;;6211457;22;20579;-83
2021/10/07 08:39:21;;;;;;;2.97;2.33;;;18.20;99.90;;;;;;6212458;23;20251;-83
2021/10/07 08:41:48;;;;;;;2.27;2.07;;;18.20;99.90;;;;;;6212316;23;20263;-82
2021/10/07 08:44:15;;;;;;;3.47;3.17;;;16.90;99.90;;;;;;6211972;23;20196;-85
2021/10/07 08:46:53;;;;;;;2.50;2.10;;;15.60;99.90;;;;;;6237374;22;20212;-85
2021/10/07 08:49:27;;;;;;;2.40;2.20;;;15.10;99.90;;;;;;6238447;22;20224;-85
2021/10/07 08:51:54;;;;;;;2.43;2.23;;;15.10;99.90;;;;;;6237405;22;20479;-88
2021/10/07 08:54:20;;;;;;;4.00;2.47;;;15.00;99.90;;;;;;6212883;23;20710;-85
2021/10/07 08:56:46;;;;;;;3.53;2.67;;;14.80;99.90;;;;;;6236935;22;20201;-85
2021/10/07 08:59:14;;;;;;;3.70;2.77;;;14.50;99.90;;;;;;6186539;23;20193;-86
2021/10/07 09:01:44;;;;;;;3.67;2.90;;;14.30;99.90;;;;;;6237311;22;20706;-84
2021/10/07 09:04:20;;;;;;;3.83;3.17;;;14.30;99.90;;;;;;6237239;22;20189;-85
2021/10/07 09:06:47;;;;;;;4.40;3.33;;;14.10;99.90;;;;;;6236783;22;20164;-85
2021/10/07 09:09:14;;;;;;;2.77;2.13;;;14.30;99.90;;;;;;6212413;23;20188;-86
2021/10/07 09:11:40;;;;;;;3.60;3.30;;;14.30;99.90;;;;;;6211948;22;20268;-85
2021/10/07 09:14:08;;;;;;;3.53;3.20;;;14.60;99.90;;;;;;6211383;23;20193;-85
2021/10/07 09:16:42;;;;;;;5.10;3.20;;;14.70;99.90;;;;;;6237153;22;20626;-85
2021/10/07 09:19:24;;;;;;;4.67;4.17;;;14.70;99.90;;;;;;6237314;22;20661;-85
2021/10/07 09:21:53;;;;;;;4.40;3.33;;;14.50;99.90;;;;;;6237043;22;20199;-85
2021/10/07 09:24:40;;;;;;;5.67;2.93;;;14.50;99.90;;;;;;6237629;23;20571;-85
2021/10/07 09:27:12;;;;;;;4.87;2.80;;;14.50;99.90;;;;;;6237825;23;20192;-85
2021/10/07 09:29:46;;;;;;;3.87;2.60;;;14.60;99.90;;;;;;6237046;22;20259;-84
2021/10/07 09:32:13;;;;;;;3.80;3.13;;;14.70;99.90;;;;;;6238394;22;20525;-85
2021/10/07 09:34:41;;;;;;;4.77;3.13;;;14.90;99.90;;;;;;6238741;22;20201;-86
2021/10/07 09:37:30;;;;;;;4.70;3.07;;;14.90;99.90;;;;;;6237051;22;20188;-87
2021/10/07 09:40:07;;;;;;;4.27;3.03;;;15.00;99.90;;;;;;6237191;22;20281;-86
2021/10/07 09:42:54;;;;;;;3.73;3.07;;;14.80;99.90;;;;;;6238459;23;20141;-85
2021/10/07 09:45:24;;;;;;;3.70;2.93;;;14.90;99.90;;;;;;6239149;23;20623;-85
2021/10/07 09:48:05;;;;;;;4.67;3.23;;;15.00;99.90;;;;;;6239280;22;20534;-86
2021/10/07 09:50:41;;;;;;;6.30;3.43;;;14.90;99.90;;;;;;6238824;22;20209;-86
2021/10/07 09:53:12;;;;;;;3.10;2.53;;;14.80;99.90;;;;;;6214463;23;20204;-86
2021/10/07 09:55:43;;;;;;;2.97;2.37;;;15.00;99.90;;;;;;6239730;22;20194;-85
2021/10/07 09:58:09;;;;;;;4.13;2.47;;;14.90;99.90;;;;;;6238926;22;20197;-87
2021/10/07 10:00:38;;;;;;;3.47;2.50;;;15.30;99.90;;;;;;6239474;23;20164;-85
2021/10/07 10:03:08;;;;;;;4.57;2.30;;;15.60;99.90;;;;;;6237981;22;20224;-85
2021/10/07 10:05:37;;;;;;;2.00;1.47;;;16.30;99.90;;;;;;6213433;23;20193;-85
2021/10/07 10:08:04;;;;;;;2.20;1.83;;;17.00;99.90;;;;;;6237833;22;20691;-85
2021/10/07 10:10:31;;;;;;;3.47;2.07;;;17.00;99.90;;;;;;6213116;23;20205;-87
2021/10/07 10:12:57;;;;;;;3.40;2.23;;;17.10;99.90;;;;;;6213525;22;20247;-85
2021/10/07 10:15:23;;;;;;;3.27;2.10;;;17.70;99.90;;;;;;6213731;23;20658;-84
2021/10/07 10:17:49;;;;;;;2.93;2.63;;;18.20;99.90;;;;;;6238184;22;20530;-86
2021/10/07 10:20:26;;;;;;;2.40;2.17;;;18.60;99.90;;;;;;6213062;23;20538;-81
2021/10/07 10:23:02;;;;;;;4.07;2.00;;;18.70;99.90;;;;;;6239775;22;20193;-86
2021/10/07 10:25:30;;;;;;;4.20;2.67;;;18.40;99.90;;;;;;6238296;22;20227;-84
2021/10/07 10:27:59;;;;;;;4.30;2.47;;;18.70;99.90;;;;;;6238896;22;20166;-88
2021/10/07 10:30:28;;;;;;;2.30;2.10;;;18.50;99.90;;;;;;6238572;23;20256;-84
2021/10/07 10:32:57;;;;;;;2.47;2.27;;;18.40;99.90;;;;;;6238421;22;20205;-83
2021/10/07 10:35:40;;;;;;;2.53;2.17;;;19.00;99.90;;;;;;6237991;22;20197;-84
2021/10/07 10:38:11;;;;;;;2.77;1.47;;;18.50;99.90;;;;;;6239635;22;20193;-85
2021/10/07 10:40:39;;;;;;;2.50;1.30;;;18.90;99.90;;;;;;6239578;22;20316;-84
2021/10/07 10:43:17;;;;;;;3.53;2.43;;;19.60;99.90;;;;;;6238308;22;20201;-86
2021/10/07 10:45:52;;;;;;;2.20;1.93;;;19.50;99.90;;;;;;6239985;22;20157;-83
2021/10/07 10:48:58;;;;;;;2.87;2.03;;;19.60;99.90;;;;;;6214188;23;20172;-84
2021/10/07 10:51:30;;;;;;;2.33;2.13;;;19.00;99.90;;;;;;6238033;23;20276;-83
2021/10/07 10:54:00;;;;;;;3.37;2.40;;;19.50;99.90;;;;;;6237730;22;20193;-83
2021/10/07 10:56:31;;;;;;;3.03;2.70;;;19.50;99.90;;;;;;6238195;22;20193;-84
2021/10/07 10:59:17;;;;;;;3.53;2.33;;;19.60;99.90;;;;;;6238440;22;20205;-84
2021/10/07 11:01:43;;;;;;;2.40;2.20;;;20.00;99.90;;;;;;6237784;22;20201;-84
2021/10/07 11:04:09;;;;;;;2.90;2.70;;;19.40;99.90;;;;;;6212936;23;20193;-84
2021/10/07 11:07:12;;;;;;;2.60;2.33;;;19.00;99.90;;;;;;6240130;22;20153;-84
2021/10/07 11:09:55;;;;;;;3.73;2.37;;;18.90;99.90;;;;;;6238075;23;20201;-84
2021/10/07 11:12:21;;;;;;;3.63;2.77;;;19.30;99.90;;;;;;6238869;23;20236;-86
2021/10/07 11:14:49;;;;;;;2.57;2.37;;;18.70;99.90;;;;;;6213162;23;20198;-88
2021/10/07 11:17:18;;;;;;;4.67;2.70;;;18.50;99.90;;;;;;6213021;23;20228;-86
2021/10/07 11:19:44;;;;;;;4.67;2.97;;;18.20;99.90;;;;;;6239835;22;20296;-87
2021/10/07 11:22:10;;;;;;;3.10;2.80;;;18.40;99.90;;;;;;6213205;23;20189;-85
2021/10/07 11:24:56;;;;;;;3.97;2.97;;;18.40;99.90;;;;;;6239402;23;20168;-85
2021/10/07 11:27:36;;;;;;;3.30;2.93;;;18.70;99.90;;;;;;6212273;23;20242;-87
2021/10/07 11:30:11;;;;;;;3.17;2.87;;;18.70;99.90;;;;;;6239651;22;20201;-84
2021/10/07 11:32:41;;;;;;;2.90;2.70;;;18.80;99.90;;;;;;6239659;22;20193;-84
2021/10/07 11:35:12;;;;;;;3.40;3.10;;;19.10;99.90;;;;;;6237794;22;20519;-85
2021/10/07 11:37:56;;;;;;;2.47;2.13;;;18.90;99.90;;;;;;6237909;22;20208;-85
2021/10/07 11:40:47;;;;;;;3.23;2.60;;;18.40;99.90;;;;;;6237330;22;20205;-85
2021/10/07 11:43:19;;;;;;;3.70;3.10;;;18.90;99.90;;;;;;6238071;22;20189;-84
2021/10/07 11:45:50;;;;;;;3.40;2.87;;;18.30;99.90;;;;;;6238095;22;20146;-85
2021/10/07 11:48:17;;;;;;;4.23;3.00;;;17.90;99.90;;;;;;6238280;23;20142;-84
2021/10/07 11:51:04;;;;;;;4.07;3.23;;;17.90;99.90;;;;;;6237415;22;20201;-85
2021/10/07 11:53:40;;;;;;;3.53;3.07;;;17.50;99.90;;;;;;6237572;22;20199;-84
2021/10/07 11:56:12;;;;;;;3.60;3.30;;;17.50;99.90;;;;;;6236941;22;20200;-84
2021/10/07 11:58:38;;;;;;;4.80;3.40;;;17.20;99.90;;;;;;6237451;22;20193;-83
2021/10/07 12:01:04;;;;;;;3.03;2.60;;;17.40;99.90;;;;;;6237991;22;20200;-83
2021/10/07 12:03:32;;;;;;;3.23;2.80;;;17.70;99.90;;;;;;6213239;23;20764;-84
2021/10/07 12:05:57;;;;;;;4.43;2.83;;;17.50;99.90;;;;;;6237261;22;20189;-83
2021/10/07 12:08:26;;;;;;;3.43;3.13;;;17.40;99.90;;;;;;6237142;22;20662;-85
2021/10/07 12:11:01;;;;;;;4.20;2.53;;;17.40;99.90;;;;;;6237887;22;20197;-84
2021/10/07 12:13:32;;;;;;;3.70;2.70;;;17.10;99.90;;;;;;6237265;22;20203;-84
2021/10/07 12:16:03;;;;;;;3.63;3.27;;;17.00;99.90;;;;;;6239564;22;20145;-84
2021/10/07 12:18:33;;;;;;;2.77;2.43;;;16.80;99.90;;;;;;6238036;23;20609;-84
2021/10/07 12:21:12;;;;;;;3.87;3.27;;;16.80;99.90;;;;;;6187835;23;20297;-85
2021/10/07 12:23:53;;;;;;;3.03;2.70;;;16.80;99.90;;;;;;6237372;22;20193;-87
2021/10/07 12:26:48;;;;;;;2.40;1.90;;;16.90;99.90;;;;;;6237071;22;20327;-85
2021/10/07 12:29:33;;;;;;;3.40;2.77;;;16.80;99.90;;;;;;6237548;22;20321;-84
2021/10/07 12:32:11;;;;;;;2.57;2.27;;;16.90;99.90;;;;;;6237102;22;20204;-84
2021/10/07 12:34:40;;;;;;;2.90;2.23;;;16.60;99.90;;;;;;6211564;23;20232;-84
2021/10/07 12:37:09;;;;;;;4.23;2.43;;;16.70;99.90;;;;;;6236751;22;20198;-85
2021/10/07 12:39:41;;;;;;;6.67;2.00;;;16.70;99.90;;;;;;6237179;23;20200;-85
2021/10/07 12:42:08;;;;;;;3.07;2.67;;;16.70;99.90;;;;;;6239006;22;20205;-84
2021/10/07 12:44:43;;;;;;;2.90;2.20;;;16.70;99.90;;;;;;6236652;22;20290;-85
2021/10/07 12:47:13;;;;;;;2.77;2.40;;;16.70;99.90;;;;;;6237415;22;20223;-85
2021/10/07 12:49:47;;;;;;;3.80;2.37;;;16.80;99.90;;;;;;6237278;22;20216;-84
2021/10/07 12:52:26;;;;;;;3.83;2.73;;;17.00;99.90;;;;;;6237554;22;20259;-85
2021/10/07 12:54:53;;;;;;;3.47;3.17;;;17.00;99.90;;;;;;6237182;22;20145;-84
2021/10/07 12:57:44;;;;;;;4.43;3.03;;;16.70;99.90;;;;;;6212873;23;20561;-84
2021/10/07 13:00:33;;;;;;;3.07;2.80;;;16.70;99.90;;;;;;6238582;22;20185;-85
2021/10/07 13:03:01;;;;;;;2.80;2.07;;;16.50;99.90;;;;;;6237060;22;20199;-85